Aérodrome :
LOGIN :

S'inscrire | Disclaimer

   EN    FR    IT 

 










Légende :    VFR   VFR Marginal   IFR   IFR Intensif   IFR Très Intensif
Visi : 
Plafond : 
>= 8 km
>= 3000ft
5 à 8 km
1000 à 3000 ft
1500m à 5 km
500 à 1000 ft
800 à 1500m
200 à 500 ft
< 800m
< 200 ft
Symboles :   Orages  Brouillard  Fortes neiges  Fortes précipitations  Vent > 20 kt
SIGMETs :   Divers  Orages  Givrage  Turbulence  Onde Orograph.  Cendres Volcan.







- Altitude de l'aérodrome : 423 ft
- Code IATA : PIS
- Voir les cartes d'approche


LFBI - Poitiers

DERNIER METAR :
  • 140800Z AUTO 22010KT 9999 FEW034 BKN064 OVC220 07/07 Q1008 TEMPO RA BKN012

METARs EXPIRÉS :
  • 140730Z AUTO 21009KT 9999 BKN011 BKN026 BKN033 07/07 Q1009 TEMPO RA BECMG BKN030
  • 140700Z AUTO 21008KT 9999 SCT028 BKN064 07/06 Q1009 TEMPO RA BKN012
  • 140630Z AUTO 21009KT 9999 FEW031 SCT042 OVC068 07/06 Q1009 TEMPO RA BKN012
  • 140600Z AUTO 23010KT 9999 BKN045 BKN052 OVC066 08/06 Q1009 TEMPO RA BKN012
  • 140530Z AUTO 23011KT CAVOK 08/06 Q1009 TEMPO RA BKN012

TAF TAF LFBI
Valide du 14 à 06h jusqu'au 15 à 06h UTC


140500Z 1406/1506 23015KT 9999 BKN030
TEMPO 1406/1409 RA BKN012
TEMPO 1411/1420 24020G35KT 3000 SHRA BKN015TCU
PROB40
TEMPO 1416/1419 28025G45KT 1400 TSRA BKN012TCU BKN015CB
Pas de NOTAMs connus pour ce terrain.



MET'MAP, la Météo Aéronautique d'un coup d'oeil ! - Copyright ORBIFLY Décembre 2007 - Disclaimer

ORBIFLY MET'MAP TEAM :

Programmation & Développement : Alexandra Zaïnal
Conception & Développement : Baudouin d'Aumeries
Co-Programmation & Développement : Marc-Olivier Méhu
Soutien technique & logistique : Manuel Goepfert

Contact : metmap@orbifly.com




SOURCES & CREDITS :

   NOAA